sensor_id;sensor_type;location;lat;lon;timestamp;P1;durP1;ratioP1;P2;durP2;ratioP2
6432;SDS011;3249;42.690;23.260;2023-07-02T00:00:53;11.17;;;8.20;;
6432;SDS011;3249;42.690;23.260;2023-07-02T00:03:23;12.43;;;7.40;;
6432;SDS011;3249;42.690;23.260;2023-07-02T00:05:51;19.20;;;16.30;;
6432;SDS011;3249;42.690;23.260;2023-07-02T00:08:21;12.47;;;8.73;;
6432;SDS011;3249;42.690;23.260;2023-07-02T00:10:51;9.80;;;6.50;;
6432;SDS011;3249;42.690;23.260;2023-07-02T00:13:23;8.70;;;6.80;;
6432;SDS011;3249;42.690;23.260;2023-07-02T00:15:52;11.63;;;10.03;;
6432;SDS011;3249;42.690;23.260;2023-07-02T00:18:21;11.97;;;8.30;;
6432;SDS011;3249;42.690;23.260;2023-07-02T00:20:59;11.20;;;8.47;;
6432;SDS011;3249;42.690;23.260;2023-07-02T00:23:30;10.13;;;8.30;;
6432;SDS011;3249;42.690;23.260;2023-07-02T00:25:59;11.57;;;8.67;;
6432;SDS011;3249;42.690;23.260;2023-07-02T00:28:30;10.13;;;8.30;;
6432;SDS011;3249;42.690;23.260;2023-07-02T00:30:59;9.73;;;7.00;;
6432;SDS011;3249;42.690;23.260;2023-07-02T00:33:29;10.47;;;6.80;;
6432;SDS011;3249;42.690;23.260;2023-07-02T00:36:01;8.50;;;6.73;;
6432;SDS011;3249;42.690;23.260;2023-07-02T00:38:30;8.43;;;7.33;;
6432;SDS011;3249;42.690;23.260;2023-07-02T00:40:58;7.67;;;6.87;;
6432;SDS011;3249;42.690;23.260;2023-07-02T00:43:31;9.17;;;7.33;;
6432;SDS011;3249;42.690;23.260;2023-07-02T00:45:59;9.97;;;7.33;;
6432;SDS011;3249;42.690;23.260;2023-07-02T00:48:30;7.43;;;6.10;;
6432;SDS011;3249;42.690;23.260;2023-07-02T00:51:01;6.07;;;5.47;;
6432;SDS011;3249;42.690;23.260;2023-07-02T00:53:30;8.57;;;6.53;;
6432;SDS011;3249;42.690;23.260;2023-07-02T00:56:00;8.30;;;6.37;;
6432;SDS011;3249;42.690;23.260;2023-07-02T00:58:32;8.63;;;7.73;;
6432;SDS011;3249;42.690;23.260;2023-07-02T01:01:03;8.63;;;6.43;;
6432;SDS011;3249;42.690;23.260;2023-07-02T01:03:32;7.00;;;6.33;;
6432;SDS011;3249;42.690;23.260;2023-07-02T01:06:03;9.07;;;7.33;;
6432;SDS011;3249;42.690;23.260;2023-07-02T01:08:32;11.73;;;6.50;;
6432;SDS011;3249;42.690;23.260;2023-07-02T01:11:01;7.10;;;6.40;;
6432;SDS011;3249;42.690;23.260;2023-07-02T01:13:33;7.90;;;6.80;;
6432;SDS011;3249;42.690;23.260;2023-07-02T01:16:03;7.43;;;6.67;;
6432;SDS011;3249;42.690;23.260;2023-07-02T01:18:32;11.70;;;8.07;;
6432;SDS011;3249;42.690;23.260;2023-07-02T01:21:07;13.50;;;8.47;;
6432;SDS011;3249;42.690;23.260;2023-07-02T01:23:36;8.93;;;8.03;;
6432;SDS011;3249;42.690;23.260;2023-07-02T01:26:06;11.70;;;8.40;;
6432;SDS011;3249;42.690;23.260;2023-07-02T01:28:35;9.23;;;7.27;;
6432;SDS011;3249;42.690;23.260;2023-07-02T01:31:04;9.33;;;6.97;;
6432;SDS011;3249;42.690;23.260;2023-07-02T01:33:33;11.83;;;8.53;;
6432;SDS011;3249;42.690;23.260;2023-07-02T01:36:02;11.00;;;7.77;;
6432;SDS011;3249;42.690;23.260;2023-07-02T01:38:34;11.07;;;8.00;;
6432;SDS011;3249;42.690;23.260;2023-07-02T01:41:05;9.60;;;7.77;;
6432;SDS011;3249;42.690;23.260;2023-07-02T01:43:33;13.23;;;9.37;;
6432;SDS011;3249;42.690;23.260;2023-07-02T01:46:02;11.67;;;9.03;;
6432;SDS011;3249;42.690;23.260;2023-07-02T01:48:31;15.33;;;10.13;;
6432;SDS011;3249;42.690;23.260;2023-07-02T01:51:00;9.93;;;7.93;;
6432;SDS011;3249;42.690;23.260;2023-07-02T01:53:29;9.30;;;7.33;;
6432;SDS011;3249;42.690;23.260;2023-07-02T01:56:01;9.80;;;7.47;;
6432;SDS011;3249;42.690;23.260;2023-07-02T01:58:30;8.47;;;7.67;;
6432;SDS011;3249;42.690;23.260;2023-07-02T02:00:59;10.27;;;7.90;;
6432;SDS011;3249;42.690;23.260;2023-07-02T02:03:28;10.97;;;8.60;;
6432;SDS011;3249;42.690;23.260;2023-07-02T02:05:57;10.30;;;7.57;;
6432;SDS011;3249;42.690;23.260;2023-07-02T02:08:26;8.60;;;7.17;;
6432;SDS011;3249;42.690;23.260;2023-07-02T02:10:55;8.07;;;7.27;;
6432;SDS011;3249;42.690;23.260;2023-07-02T02:13:28;8.93;;;7.03;;
6432;SDS011;3249;42.690;23.260;2023-07-02T02:15:58;8.80;;;7.90;;
6432;SDS011;3249;42.690;23.260;2023-07-02T02:18:27;8.50;;;7.30;;
6432;SDS011;3249;42.690;23.260;2023-07-02T02:20:56;8.70;;;7.67;;
6432;SDS011;3249;42.690;23.260;2023-07-02T02:23:25;9.30;;;7.60;;
6432;SDS011;3249;42.690;23.260;2023-07-02T02:25:54;8.97;;;8.03;;
6432;SDS011;3249;42.690;23.260;2023-07-02T02:28:23;23.23;;;13.57;;
6432;SDS011;3249;42.690;23.260;2023-07-02T02:30:54;10.43;;;9.40;;
6432;SDS011;3249;42.690;23.260;2023-07-02T02:33:24;10.23;;;9.00;;
6432;SDS011;3249;42.690;23.260;2023-07-02T02:35:53;17.60;;;10.77;;
6432;SDS011;3249;42.690;23.260;2023-07-02T02:38:23;22.60;;;13.03;;
6432;SDS011;3249;42.690;23.260;2023-07-02T02:40:52;18.60;;;12.63;;
6432;SDS011;3249;42.690;23.260;2023-07-02T02:43:21;16.53;;;10.60;;
6432;SDS011;3249;42.690;23.260;2023-07-02T02:45:50;15.70;;;10.60;;
6432;SDS011;3249;42.690;23.260;2023-07-02T02:48:22;16.77;;;11.67;;
6432;SDS011;3249;42.690;23.260;2023-07-02T02:50:51;14.03;;;11.40;;
6432;SDS011;3249;42.690;23.260;2023-07-02T02:53:20;14.53;;;11.40;;
6432;SDS011;3249;42.690;23.260;2023-07-02T02:55:49;14.57;;;11.37;;
6432;SDS011;3249;42.690;23.260;2023-07-02T02:58:19;13.53;;;10.50;;
6432;SDS011;3249;42.690;23.260;2023-07-02T03:00:48;13.43;;;10.17;;
6432;SDS011;3249;42.690;23.260;2023-07-02T03:03:17;11.53;;;9.07;;
6432;SDS011;3249;42.690;23.260;2023-07-02T03:05:49;15.73;;;10.77;;
6432;SDS011;3249;42.690;23.260;2023-07-02T03:08:18;18.20;;;10.67;;
6432;SDS011;3249;42.690;23.260;2023-07-02T03:10:47;12.43;;;8.57;;
6432;SDS011;3249;42.690;23.260;2023-07-02T03:13:16;14.97;;;8.37;;
6432;SDS011;3249;42.690;23.260;2023-07-02T03:15:45;13.50;;;8.73;;
6432;SDS011;3249;42.690;23.260;2023-07-02T03:18:14;11.20;;;8.53;;
6432;SDS011;3249;42.690;23.260;2023-07-02T03:20:43;12.60;;;9.50;;
6432;SDS011;3249;42.690;23.260;2023-07-02T03:23:15;9.77;;;8.03;;
6432;SDS011;3249;42.690;23.260;2023-07-02T03:25:44;10.63;;;8.50;;
6432;SDS011;3249;42.690;23.260;2023-07-02T03:28:13;12.50;;;8.60;;
6432;SDS011;3249;42.690;23.260;2023-07-02T03:30:42;14.20;;;9.27;;
6432;SDS011;3249;42.690;23.260;2023-07-02T03:33:11;10.57;;;7.90;;
6432;SDS011;3249;42.690;23.260;2023-07-02T03:35:40;11.17;;;8.33;;
6432;SDS011;3249;42.690;23.260;2023-07-02T03:38:09;11.13;;;8.07;;
6432;SDS011;3249;42.690;23.260;2023-07-02T03:40:42;13.53;;;8.33;;
6432;SDS011;3249;42.690;23.260;2023-07-02T03:43:11;11.13;;;7.87;;
6432;SDS011;3249;42.690;23.260;2023-07-02T03:45:40;10.90;;;7.90;;
6432;SDS011;3249;42.690;23.260;2023-07-02T03:48:10;9.03;;;7.97;;
6432;SDS011;3249;42.690;23.260;2023-07-02T03:50:39;16.03;;;9.57;;
6432;SDS011;3249;42.690;23.260;2023-07-02T03:53:08;15.50;;;9.33;;
6432;SDS011;3249;42.690;23.260;2023-07-02T03:55:37;11.70;;;7.80;;
6432;SDS011;3249;42.690;23.260;2023-07-02T03:58:09;11.90;;;7.90;;
6432;SDS011;3249;42.690;23.260;2023-07-02T04:00:38;9.13;;;7.87;;
6432;SDS011;3249;42.690;23.260;2023-07-02T04:03:07;10.03;;;7.90;;
6432;SDS011;3249;42.690;23.260;2023-07-02T04:05:36;11.83;;;7.53;;
6432;SDS011;3249;42.690;23.260;2023-07-02T04:08:05;9.80;;;6.87;;
6432;SDS011;3249;42.690;23.260;2023-07-02T04:10:34;12.83;;;7.57;;
6432;SDS011;3249;42.690;23.260;2023-07-02T04:13:03;11.13;;;7.87;;
6432;SDS011;3249;42.690;23.260;2023-07-02T04:15:35;10.67;;;7.63;;
6432;SDS011;3249;42.690;23.260;2023-07-02T04:18:04;8.70;;;7.80;;
6432;SDS011;3249;42.690;23.260;2023-07-02T04:20:33;13.57;;;8.50;;
6432;SDS011;3249;42.690;23.260;2023-07-02T04:23:04;26.27;;;19.80;;
6432;SDS011;3249;42.690;23.260;2023-07-02T04:25:33;23.50;;;19.00;;
6432;SDS011;3249;42.690;23.260;2023-07-02T04:28:02;22.43;;;17.13;;
6432;SDS011;3249;42.690;23.260;2023-07-02T04:30:31;14.87;;;13.07;;
6432;SDS011;3249;42.690;23.260;2023-07-02T04:33:03;18.80;;;11.83;;
6432;SDS011;3249;42.690;23.260;2023-07-02T04:35:33;11.83;;;10.23;;
6432;SDS011;3249;42.690;23.260;2023-07-02T04:38:02;43.07;;;34.80;;
6432;SDS011;3249;42.690;23.260;2023-07-02T04:40:31;12.27;;;10.27;;
6432;SDS011;3249;42.690;23.260;2023-07-02T04:43:00;12.67;;;9.43;;
6432;SDS011;3249;42.690;23.260;2023-07-02T04:45:29;11.57;;;9.10;;
6432;SDS011;3249;42.690;23.260;2023-07-02T04:48:04;12.70;;;8.40;;
6432;SDS011;3249;42.690;23.260;2023-07-02T04:50:34;11.03;;;7.80;;
6432;SDS011;3249;42.690;23.260;2023-07-02T04:53:03;12.63;;;8.63;;
6432;SDS011;3249;42.690;23.260;2023-07-02T04:55:32;11.43;;;8.00;;
6432;SDS011;3249;42.690;23.260;2023-07-02T04:58:01;12.50;;;8.40;;
6432;SDS011;3249;42.690;23.260;2023-07-02T05:00:30;11.67;;;8.20;;
6432;SDS011;3249;42.690;23.260;2023-07-02T05:02:59;13.80;;;9.30;;
6432;SDS011;3249;42.690;23.260;2023-07-02T05:05:31;13.77;;;8.37;;
6432;SDS011;3249;42.690;23.260;2023-07-02T05:08:00;14.57;;;9.13;;
6432;SDS011;3249;42.690;23.260;2023-07-02T05:10:30;23.63;;;19.50;;
6432;SDS011;3249;42.690;23.260;2023-07-02T05:12:59;24.73;;;18.37;;
6432;SDS011;3249;42.690;23.260;2023-07-02T05:15:27;14.67;;;10.67;;
6432;SDS011;3249;42.690;23.260;2023-07-02T05:17:56;15.00;;;12.73;;
6432;SDS011;3249;42.690;23.260;2023-07-02T05:20:26;13.20;;;10.83;;
6432;SDS011;3249;42.690;23.260;2023-07-02T05:22:57;12.87;;;11.50;;
6432;SDS011;3249;42.690;23.260;2023-07-02T05:25:26;16.27;;;13.20;;
6432;SDS011;3249;42.690;23.260;2023-07-02T05:27:55;20.17;;;10.03;;
6432;SDS011;3249;42.690;23.260;2023-07-02T05:30:24;12.63;;;9.23;;
6432;SDS011;3249;42.690;23.260;2023-07-02T05:32:53;15.10;;;10.40;;
6432;SDS011;3249;42.690;23.260;2023-07-02T05:35:23;14.97;;;9.63;;
6432;SDS011;3249;42.690;23.260;2023-07-02T05:37:51;15.13;;;9.80;;
6432;SDS011;3249;42.690;23.260;2023-07-02T05:40:23;10.73;;;9.00;;
6432;SDS011;3249;42.690;23.260;2023-07-02T05:42:52;13.87;;;8.87;;
6432;SDS011;3249;42.690;23.260;2023-07-02T05:45:20;9.87;;;8.17;;
6432;SDS011;3249;42.690;23.260;2023-07-02T05:47:49;13.13;;;9.40;;
6432;SDS011;3249;42.690;23.260;2023-07-02T05:50:19;11.27;;;9.57;;
6432;SDS011;3249;42.690;23.260;2023-07-02T05:52:47;14.00;;;9.60;;
6432;SDS011;3249;42.690;23.260;2023-07-02T05:55:16;13.03;;;9.13;;
6432;SDS011;3249;42.690;23.260;2023-07-02T05:57:48;12.37;;;9.13;;
6432;SDS011;3249;42.690;23.260;2023-07-02T06:00:17;12.73;;;9.00;;
6432;SDS011;3249;42.690;23.260;2023-07-02T06:02:46;11.57;;;9.30;;
6432;SDS011;3249;42.690;23.260;2023-07-02T06:05:15;12.90;;;9.23;;
6432;SDS011;3249;42.690;23.260;2023-07-02T06:07:45;13.20;;;9.40;;
6432;SDS011;3249;42.690;23.260;2023-07-02T06:10:14;10.87;;;7.87;;
6432;SDS011;3249;42.690;23.260;2023-07-02T06:12:44;11.63;;;8.90;;
6432;SDS011;3249;42.690;23.260;2023-07-02T06:15:15;13.77;;;8.57;;
6432;SDS011;3249;42.690;23.260;2023-07-02T06:17:44;14.97;;;9.93;;
6432;SDS011;3249;42.690;23.260;2023-07-02T06:20:13;11.07;;;8.67;;
6432;SDS011;3249;42.690;23.260;2023-07-02T06:22:42;10.03;;;9.03;;
6432;SDS011;3249;42.690;23.260;2023-07-02T06:25:11;11.37;;;8.57;;
6432;SDS011;3249;42.690;23.260;2023-07-02T06:27:41;15.93;;;9.30;;
6432;SDS011;3249;42.690;23.260;2023-07-02T06:30:10;16.03;;;9.10;;
6432;SDS011;3249;42.690;23.260;2023-07-02T06:32:42;11.93;;;9.20;;
6432;SDS011;3249;42.690;23.260;2023-07-02T06:35:11;16.30;;;8.80;;
6432;SDS011;3249;42.690;23.260;2023-07-02T06:37:40;14.50;;;9.87;;
6432;SDS011;3249;42.690;23.260;2023-07-02T06:40:09;12.67;;;8.87;;
6432;SDS011;3249;42.690;23.260;2023-07-02T06:42:39;10.23;;;9.23;;
6432;SDS011;3249;42.690;23.260;2023-07-02T06:45:08;14.93;;;9.63;;
6432;SDS011;3249;42.690;23.260;2023-07-02T06:47:37;11.60;;;8.33;;
6432;SDS011;3249;42.690;23.260;2023-07-02T06:50:09;13.30;;;9.03;;
6432;SDS011;3249;42.690;23.260;2023-07-02T06:52:38;10.60;;;9.00;;
6432;SDS011;3249;42.690;23.260;2023-07-02T06:55:08;11.70;;;9.50;;
6432;SDS011;3249;42.690;23.260;2023-07-02T06:57:41;10.53;;;8.83;;
6432;SDS011;3249;42.690;23.260;2023-07-02T07:00:12;11.70;;;9.27;;
6432;SDS011;3249;42.690;23.260;2023-07-02T07:02:42;13.10;;;9.87;;
6432;SDS011;3249;42.690;23.260;2023-07-02T07:05:14;16.97;;;13.60;;
6432;SDS011;3249;42.690;23.260;2023-07-02T07:07:43;14.27;;;11.27;;
6432;SDS011;3249;42.690;23.260;2023-07-02T07:10:12;14.77;;;11.87;;
6432;SDS011;3249;42.690;23.260;2023-07-02T07:12:41;13.60;;;11.93;;
6432;SDS011;3249;42.690;23.260;2023-07-02T07:15:10;17.90;;;15.80;;
6432;SDS011;3249;42.690;23.260;2023-07-02T07:17:39;16.33;;;14.63;;
6432;SDS011;3249;42.690;23.260;2023-07-02T07:20:08;22.30;;;19.20;;
6432;SDS011;3249;42.690;23.260;2023-07-02T07:22:40;16.53;;;12.17;;
6432;SDS011;3249;42.690;23.260;2023-07-02T07:25:09;11.73;;;9.83;;
6432;SDS011;3249;42.690;23.260;2023-07-02T07:27:39;10.93;;;9.57;;
6432;SDS011;3249;42.690;23.260;2023-07-02T07:30:08;11.23;;;9.40;;
6432;SDS011;3249;42.690;23.260;2023-07-02T07:32:38;11.60;;;9.70;;
6432;SDS011;3249;42.690;23.260;2023-07-02T07:35:07;11.13;;;9.67;;
6432;SDS011;3249;42.690;23.260;2023-07-02T07:37:36;17.37;;;9.93;;
6432;SDS011;3249;42.690;23.260;2023-07-02T07:40:09;12.13;;;9.23;;
6432;SDS011;3249;42.690;23.260;2023-07-02T07:42:38;14.27;;;9.83;;
6432;SDS011;3249;42.690;23.260;2023-07-02T07:45:07;12.10;;;9.60;;
6432;SDS011;3249;42.690;23.260;2023-07-02T07:47:38;11.03;;;8.47;;
6432;SDS011;3249;42.690;23.260;2023-07-02T07:50:07;11.43;;;10.10;;
6432;SDS011;3249;42.690;23.260;2023-07-02T07:52:42;10.83;;;8.80;;
6432;SDS011;3249;42.690;23.260;2023-07-02T07:55:11;10.80;;;8.03;;
6432;SDS011;3249;42.690;23.260;2023-07-02T07:57:41;9.33;;;7.70;;
6432;SDS011;3249;42.690;23.260;2023-07-02T08:00:10;10.60;;;9.23;;
6432;SDS011;3249;42.690;23.260;2023-07-02T08:02:44;9.80;;;7.90;;
6432;SDS011;3249;42.690;23.260;2023-07-02T08:05:14;7.70;;;6.87;;
6432;SDS011;3249;42.690;23.260;2023-07-02T08:07:46;7.47;;;6.63;;
6432;SDS011;3249;42.690;23.260;2023-07-02T08:10:15;9.73;;;8.17;;
6432;SDS011;3249;42.690;23.260;2023-07-02T08:12:44;11.47;;;8.27;;
6432;SDS011;3249;42.690;23.260;2023-07-02T08:15:14;8.53;;;7.63;;
6432;SDS011;3249;42.690;23.260;2023-07-02T08:17:44;12.30;;;7.70;;
6432;SDS011;3249;42.690;23.260;2023-07-02T08:20:13;9.63;;;7.93;;
6432;SDS011;3249;42.690;23.260;2023-07-02T08:22:42;9.23;;;7.10;;
6432;SDS011;3249;42.690;23.260;2023-07-02T08:25:14;9.40;;;6.93;;
6432;SDS011;3249;42.690;23.260;2023-07-02T08:27:43;11.03;;;6.60;;
6432;SDS011;3249;42.690;23.260;2023-07-02T08:30:12;11.63;;;6.97;;
6432;SDS011;3249;42.690;23.260;2023-07-02T08:32:41;9.30;;;6.57;;
6432;SDS011;3249;42.690;23.260;2023-07-02T08:35:10;8.87;;;6.60;;
6432;SDS011;3249;42.690;23.260;2023-07-02T08:37:39;9.53;;;7.23;;
6432;SDS011;3249;42.690;23.260;2023-07-02T08:40:17;11.47;;;10.37;;
6432;SDS011;3249;42.690;23.260;2023-07-02T08:42:48;14.47;;;9.03;;
6432;SDS011;3249;42.690;23.260;2023-07-02T08:45:17;7.40;;;5.63;;
6432;SDS011;3249;42.690;23.260;2023-07-02T08:47:46;13.07;;;7.70;;
6432;SDS011;3249;42.690;23.260;2023-07-02T08:50:16;10.10;;;7.73;;
6432;SDS011;3249;42.690;23.260;2023-07-02T08:52:45;10.90;;;8.20;;
6432;SDS011;3249;42.690;23.260;2023-07-02T08:55:17;10.13;;;7.57;;
6432;SDS011;3249;42.690;23.260;2023-07-02T08:57:49;11.57;;;7.37;;
6432;SDS011;3249;42.690;23.260;2023-07-02T09:00:20;10.17;;;7.50;;
6432;SDS011;3249;42.690;23.260;2023-07-02T09:02:49;12.10;;;8.13;;
6432;SDS011;3249;42.690;23.260;2023-07-02T09:05:18;10.87;;;8.03;;
6432;SDS011;3249;42.690;23.260;2023-07-02T09:07:48;8.90;;;7.80;;
6432;SDS011;3249;42.690;23.260;2023-07-02T09:10:30;8.87;;;7.40;;
6432;SDS011;3249;42.690;23.260;2023-07-02T09:13:03;8.13;;;7.47;;
6432;SDS011;3249;42.690;23.260;2023-07-02T09:15:36;8.30;;;7.43;;
6432;SDS011;3249;42.690;23.260;2023-07-02T09:18:16;9.47;;;6.70;;
6432;SDS011;3249;42.690;23.260;2023-07-02T09:20:46;7.33;;;6.40;;
6432;SDS011;3249;42.690;23.260;2023-07-02T09:23:15;7.93;;;6.53;;
6432;SDS011;3249;42.690;23.260;2023-07-02T09:25:47;7.20;;;6.60;;
6432;SDS011;3249;42.690;23.260;2023-07-02T09:28:17;6.83;;;6.07;;
6432;SDS011;3249;42.690;23.260;2023-07-02T09:30:48;7.03;;;6.33;;
6432;SDS011;3249;42.690;23.260;2023-07-02T09:33:18;11.47;;;7.30;;
6432;SDS011;3249;42.690;23.260;2023-07-02T09:35:47;7.20;;;6.53;;
6432;SDS011;3249;42.690;23.260;2023-07-02T09:38:17;7.50;;;6.53;;
6432;SDS011;3249;42.690;23.260;2023-07-02T09:40:51;11.53;;;6.10;;
6432;SDS011;3249;42.690;23.260;2023-07-02T09:43:22;8.43;;;6.80;;
6432;SDS011;3249;42.690;23.260;2023-07-02T09:45:54;12.30;;;7.50;;
6432;SDS011;3249;42.690;23.260;2023-07-02T09:48:24;8.80;;;7.50;;
6432;SDS011;3249;42.690;23.260;2023-07-02T09:50:57;9.17;;;7.40;;
6432;SDS011;3249;42.690;23.260;2023-07-02T09:53:28;8.57;;;7.30;;
6432;SDS011;3249;42.690;23.260;2023-07-02T09:55:59;7.77;;;7.00;;
6432;SDS011;3249;42.690;23.260;2023-07-02T09:58:28;7.43;;;6.73;;
6432;SDS011;3249;42.690;23.260;2023-07-02T10:00:59;7.50;;;6.70;;
6432;SDS011;3249;42.690;23.260;2023-07-02T10:03:28;8.13;;;7.33;;
6432;SDS011;3249;42.690;23.260;2023-07-02T10:06:04;6.77;;;6.03;;
6432;SDS011;3249;42.690;23.260;2023-07-02T10:08:34;6.53;;;5.93;;
6432;SDS011;3249;42.690;23.260;2023-07-02T10:11:12;6.43;;;5.93;;
6432;SDS011;3249;42.690;23.260;2023-07-02T10:13:41;8.67;;;7.13;;
6432;SDS011;3249;42.690;23.260;2023-07-02T10:16:10;6.67;;;5.97;;
6432;SDS011;3249;42.690;23.260;2023-07-02T10:18:39;5.80;;;5.20;;
6432;SDS011;3249;42.690;23.260;2023-07-02T10:21:13;7.13;;;6.43;;
6432;SDS011;3249;42.690;23.260;2023-07-02T10:23:43;8.40;;;5.73;;
6432;SDS011;3249;42.690;23.260;2023-07-02T10:26:18;6.27;;;5.70;;
6432;SDS011;3249;42.690;23.260;2023-07-02T10:28:57;5.07;;;4.67;;
6432;SDS011;3249;42.690;23.260;2023-07-02T10:31:28;8.37;;;5.40;;
6432;SDS011;3249;42.690;23.260;2023-07-02T10:33:57;20.07;;;17.97;;
6432;SDS011;3249;42.690;23.260;2023-07-02T10:36:26;4.87;;;4.47;;
6432;SDS011;3249;42.690;23.260;2023-07-02T10:39:00;4.70;;;4.30;;
6432;SDS011;3249;42.690;23.260;2023-07-02T10:41:37;4.57;;;4.17;;
6432;SDS011;3249;42.690;23.260;2023-07-02T10:44:09;3.90;;;3.50;;
6432;SDS011;3249;42.690;23.260;2023-07-02T10:46:45;4.50;;;4.10;;
6432;SDS011;3249;42.690;23.260;2023-07-02T10:49:14;4.30;;;4.00;;
6432;SDS011;3249;42.690;23.260;2023-07-02T10:51:56;5.57;;;4.10;;
6432;SDS011;3249;42.690;23.260;2023-07-02T10:54:25;4.83;;;4.33;;
6432;SDS011;3249;42.690;23.260;2023-07-02T10:56:59;4.67;;;4.27;;
6432;SDS011;3249;42.690;23.260;2023-07-02T10:59:28;4.80;;;4.40;;
6432;SDS011;3249;42.690;23.260;2023-07-02T11:01:57;4.67;;;4.27;;
6432;SDS011;3249;42.690;23.260;2023-07-02T11:04:28;5.10;;;4.70;;
6432;SDS011;3249;42.690;23.260;2023-07-02T11:06:59;6.33;;;5.70;;
6432;SDS011;3249;42.690;23.260;2023-07-02T11:09:28;4.90;;;4.50;;
6432;SDS011;3249;42.690;23.260;2023-07-02T11:12:00;4.80;;;4.40;;
6432;SDS011;3249;42.690;23.260;2023-07-02T11:14:29;5.90;;;4.97;;
6432;SDS011;3249;42.690;23.260;2023-07-02T11:17:02;5.30;;;4.90;;
6432;SDS011;3249;42.690;23.260;2023-07-02T11:19:33;5.37;;;4.87;;
6432;SDS011;3249;42.690;23.260;2023-07-02T11:22:03;7.00;;;5.33;;
6432;SDS011;3249;42.690;23.260;2023-07-02T11:24:32;6.90;;;5.57;;
6432;SDS011;3249;42.690;23.260;2023-07-02T11:27:05;7.90;;;5.27;;
6432;SDS011;3249;42.690;23.260;2023-07-02T11:29:34;8.80;;;5.90;;
6432;SDS011;3249;42.690;23.260;2023-07-02T11:32:07;5.90;;;5.40;;
6432;SDS011;3249;42.690;23.260;2023-07-02T11:34:37;6.77;;;4.70;;
6432;SDS011;3249;42.690;23.260;2023-07-02T11:37:07;7.43;;;6.07;;
6432;SDS011;3249;42.690;23.260;2023-07-02T11:39:36;4.87;;;4.47;;
6432;SDS011;3249;42.690;23.260;2023-07-02T11:42:08;5.07;;;4.67;;
6432;SDS011;3249;42.690;23.260;2023-07-02T11:44:37;4.90;;;4.50;;
6432;SDS011;3249;42.690;23.260;2023-07-02T11:47:06;5.50;;;4.53;;
6432;SDS011;3249;42.690;23.260;2023-07-02T11:49:35;4.47;;;4.07;;
6432;SDS011;3249;42.690;23.260;2023-07-02T11:52:04;3.87;;;3.47;;
6432;SDS011;3249;42.690;23.260;2023-07-02T11:54:34;3.20;;;2.90;;
6432;SDS011;3249;42.690;23.260;2023-07-02T11:57:04;3.03;;;2.83;;
6432;SDS011;3249;42.690;23.260;2023-07-02T11:59:37;4.13;;;3.73;;
6432;SDS011;3249;42.690;23.260;2023-07-02T12:02:05;3.83;;;3.53;;
6432;SDS011;3249;42.690;23.260;2023-07-02T12:04:34;3.80;;;3.50;;
6432;SDS011;3249;42.690;23.260;2023-07-02T12:07:04;4.17;;;3.87;;
6432;SDS011;3249;42.690;23.260;2023-07-02T12:09:33;4.53;;;4.13;;
6432;SDS011;3249;42.690;23.260;2023-07-02T12:12:02;6.93;;;4.40;;
6432;SDS011;3249;42.690;23.260;2023-07-02T12:14:31;5.37;;;4.87;;
6432;SDS011;3249;42.690;23.260;2023-07-02T12:17:03;7.10;;;4.47;;
6432;SDS011;3249;42.690;23.260;2023-07-02T12:19:33;5.70;;;5.10;;
6432;SDS011;3249;42.690;23.260;2023-07-02T12:22:02;5.13;;;4.63;;
6432;SDS011;3249;42.690;23.260;2023-07-02T12:24:31;5.37;;;4.90;;
6432;SDS011;3249;42.690;23.260;2023-07-02T12:27:00;7.27;;;5.23;;
6432;SDS011;3249;42.690;23.260;2023-07-02T12:29:29;5.10;;;4.63;;
6432;SDS011;3249;42.690;23.260;2023-07-02T12:31:58;6.33;;;5.00;;
6432;SDS011;3249;42.690;23.260;2023-07-02T12:34:30;5.57;;;4.97;;
6432;SDS011;3249;42.690;23.260;2023-07-02T12:36:59;5.20;;;4.70;;
6432;SDS011;3249;42.690;23.260;2023-07-02T12:39:29;6.03;;;5.43;;
6432;SDS011;3249;42.690;23.260;2023-07-02T12:41:58;5.63;;;5.20;;
6432;SDS011;3249;42.690;23.260;2023-07-02T12:44:27;5.33;;;4.93;;
6432;SDS011;3249;42.690;23.260;2023-07-02T12:46:56;5.63;;;5.13;;
6432;SDS011;3249;42.690;23.260;2023-07-02T12:49:25;5.27;;;4.70;;
6432;SDS011;3249;42.690;23.260;2023-07-02T12:51:57;5.77;;;5.10;;
6432;SDS011;3249;42.690;23.260;2023-07-02T12:54:26;6.27;;;5.67;;
6432;SDS011;3249;42.690;23.260;2023-07-02T12:56:55;5.70;;;5.20;;
6432;SDS011;3249;42.690;23.260;2023-07-02T12:59:24;6.97;;;6.27;;
6432;SDS011;3249;42.690;23.260;2023-07-02T13:01:53;7.57;;;6.27;;
6432;SDS011;3249;42.690;23.260;2023-07-02T13:04:21;6.40;;;5.90;;
6432;SDS011;3249;42.690;23.260;2023-07-02T13:06:50;6.10;;;5.50;;
6432;SDS011;3249;42.690;23.260;2023-07-02T13:09:23;7.00;;;6.13;;
6432;SDS011;3249;42.690;23.260;2023-07-02T13:11:52;6.13;;;5.53;;
6432;SDS011;3249;42.690;23.260;2023-07-02T13:14:20;6.23;;;5.63;;
6432;SDS011;3249;42.690;23.260;2023-07-02T13:16:49;6.43;;;5.20;;
6432;SDS011;3249;42.690;23.260;2023-07-02T13:19:18;8.23;;;5.30;;
6432;SDS011;3249;42.690;23.260;2023-07-02T13:21:47;5.50;;;5.00;;
6432;SDS011;3249;42.690;23.260;2023-07-02T13:24:24;6.37;;;5.77;;
6432;SDS011;3249;42.690;23.260;2023-07-02T13:26:53;9.00;;;6.37;;
6432;SDS011;3249;42.690;23.260;2023-07-02T13:29:21;6.77;;;6.00;;
6432;SDS011;3249;42.690;23.260;2023-07-02T13:31:50;6.60;;;5.93;;
6432;SDS011;3249;42.690;23.260;2023-07-02T13:34:20;6.53;;;5.93;;
6432;SDS011;3249;42.690;23.260;2023-07-02T13:36:49;7.50;;;5.93;;
6432;SDS011;3249;42.690;23.260;2023-07-02T13:39:18;10.33;;;8.20;;
6432;SDS011;3249;42.690;23.260;2023-07-02T13:41:49;7.00;;;6.30;;
6432;SDS011;3249;42.690;23.260;2023-07-02T13:44:18;6.30;;;5.80;;
6432;SDS011;3249;42.690;23.260;2023-07-02T13:46:47;8.57;;;6.90;;
6432;SDS011;3249;42.690;23.260;2023-07-02T13:49:18;7.87;;;7.07;;
6432;SDS011;3249;42.690;23.260;2023-07-02T13:51:47;7.87;;;5.83;;
6432;SDS011;3249;42.690;23.260;2023-07-02T13:54:17;8.33;;;6.57;;
6432;SDS011;3249;42.690;23.260;2023-07-02T13:56:46;8.23;;;7.43;;
6432;SDS011;3249;42.690;23.260;2023-07-02T13:59:21;14.00;;;8.77;;
6432;SDS011;3249;42.690;23.260;2023-07-02T14:01:50;12.73;;;9.47;;
6432;SDS011;3249;42.690;23.260;2023-07-02T14:04:19;9.23;;;7.93;;
6432;SDS011;3249;42.690;23.260;2023-07-02T14:06:48;10.33;;;8.00;;
6432;SDS011;3249;42.690;23.260;2023-07-02T14:09:17;10.27;;;8.40;;
6432;SDS011;3249;42.690;23.260;2023-07-02T14:11:46;9.10;;;7.93;;
6432;SDS011;3249;42.690;23.260;2023-07-02T14:14:15;9.83;;;8.37;;
6432;SDS011;3249;42.690;23.260;2023-07-02T14:16:47;9.33;;;8.43;;
6432;SDS011;3249;42.690;23.260;2023-07-02T14:19:16;9.30;;;8.30;;
6432;SDS011;3249;42.690;23.260;2023-07-02T14:21:45;8.83;;;7.93;;
6432;SDS011;3249;42.690;23.260;2023-07-02T14:24:14;9.63;;;8.17;;
6432;SDS011;3249;42.690;23.260;2023-07-02T14:26:44;10.60;;;8.20;;
6432;SDS011;3249;42.690;23.260;2023-07-02T14:29:13;8.97;;;8.10;;
6432;SDS011;3249;42.690;23.260;2023-07-02T14:31:42;10.13;;;9.13;;
6432;SDS011;3249;42.690;23.260;2023-07-02T14:34:13;9.63;;;7.70;;
6432;SDS011;3249;42.690;23.260;2023-07-02T14:36:42;8.80;;;8.00;;
6432;SDS011;3249;42.690;23.260;2023-07-02T14:39:12;10.60;;;8.67;;
6432;SDS011;3249;42.690;23.260;2023-07-02T14:41:41;10.53;;;8.40;;
6432;SDS011;3249;42.690;23.260;2023-07-02T14:44:10;10.17;;;8.10;;
6432;SDS011;3249;42.690;23.260;2023-07-02T14:46:39;8.30;;;7.50;;
6432;SDS011;3249;42.690;23.260;2023-07-02T14:49:08;10.70;;;8.73;;
6432;SDS011;3249;42.690;23.260;2023-07-02T14:51:40;10.17;;;9.17;;
6432;SDS011;3249;42.690;23.260;2023-07-02T14:54:09;10.77;;;8.10;;
6432;SDS011;3249;42.690;23.260;2023-07-02T14:56:38;11.27;;;8.27;;
6432;SDS011;3249;42.690;23.260;2023-07-02T14:59:08;8.50;;;7.60;;
6432;SDS011;3249;42.690;23.260;2023-07-02T15:01:36;9.80;;;8.20;;
6432;SDS011;3249;42.690;23.260;2023-07-02T15:04:05;9.73;;;8.47;;
6432;SDS011;3249;42.690;23.260;2023-07-02T15:06:34;9.70;;;7.80;;
6432;SDS011;3249;42.690;23.260;2023-07-02T15:09:06;9.47;;;8.03;;